Time,TemperatureF,DewpointF,PressureIn,WindDirection,WindDirectionDegrees,WindSpeedMPH,WindSpeedGustMPH,Humidity,HourlyPrecipIn,Conditions,Clouds,dailyrainin,SolarRadiationWatts/m^2,SoftwareType,DateUTC
2013-12-08 00:01:00,50.4,43.1,30.31,NNE,22,8.1,8.1,76,0.00,RA,,0.00,0.0,WeatherDisplay:10.37,2013-12-07 23:01:00,
2013-12-08 00:06:00,50.2,42.6,30.31,NNE,22,8.1,8.1,75,0.00,RA,,0.00,0.0,WeatherDisplay:10.37,2013-12-07 23:06:00,
2013-12-08 00:11:00,50.0,42.4,30.31,NNE,22,6.9,6.9,75,0.00,CLR,,0.00,0.0,WeatherDisplay:10.37,2013-12-07 23:11:00,
2013-12-08 00:16:00,49.9,42.3,30.31,NNE,22,5.8,5.8,75,0.00,CLR,,0.00,0.0,WeatherDisplay:10.37,2013-12-07 23:16:00,
2013-12-08 00:21:00,49.7,42.1,30.31,NNE,22,5.8,5.8,75,0.00,CLR,,0.00,0.0,WeatherDisplay:10.37,2013-12-07 23:21:00,
2013-12-08 00:26:00,49.7,42.1,30.31,NNE,22,4.0,4.0,75,0.00,CLR,,0.00,0.0,WeatherDisplay:10.37,2013-12-07 23:26:00,
2013-12-08 00:31:00,49.6,42.0,30.31,NNE,22,4.6,4.6,75,0.00,CLR,,0.00,0.0,WeatherDisplay:10.37,2013-12-07 23:31:00,
2013-12-08 00:36:00,49.6,41.7,30.31,NNE,22,5.8,5.8,74,0.00,CLR,,0.00,0.0,WeatherDisplay:10.37,2013-12-07 23:36:00,
2013-12-08 00:41:00,49.6,41.7,30.31,NNE,22,4.6,4.8,74,0.00,CLR,,0.00,0.0,WeatherDisplay:10.37,2013-12-07 23:41:00,
2013-12-08 00:46:00,49.5,41.6,30.31,NNE,22,6.9,6.9,74,0.00,CLR,,0.00,0.0,WeatherDisplay:10.37,2013-12-07 23:46:00,
2013-12-08 00:51:00,49.4,41.1,30.31,NNE,22,6.9,6.9,73,0.00,CLR,,0.00,0.0,WeatherDisplay:10.37,2013-12-07 23:51:00,
2013-12-08 00:56:00,49.2,40.9,30.30,NNE,22,6.9,6.9,73,0.00,CLR,,0.00,0.0,WeatherDisplay:10.37,2013-12-07 23:56:00,
2013-12-08 01:01:00,49.1,40.5,30.30,NNE,22,6.9,6.9,72,0.00,CLR,,0.00,0.0,WeatherDisplay:10.37,2013-12-08 00:01:00,
2013-12-08 01:06:00,48.8,40.2,30.30,NNE,21,6.9,6.9,72,0.00,CLR,,0.00,0.0,WeatherDisplay:10.37,2013-12-08 00:06:00,
2013-12-08 01:11:00,48.6,39.6,30.30,NNE,21,8.1,8.1,71,0.00,CLR,,0.00,0.0,WeatherDisplay:10.37,2013-12-08 00:11:00,
2013-12-08 01:16:00,48.5,39.5,30.30,NNE,20,8.1,8.1,71,0.00,CLR,,0.00,0.0,WeatherDisplay:10.37,2013-12-08 00:16:00,
2013-12-08 01:21:00,48.4,40.5,30.30,NNE,19,5.8,5.8,74,0.00,CLR,,0.00,0.0,WeatherDisplay:10.37,2013-12-08 00:21:00,
2013-12-08 01:26:00,48.4,40.5,30.30,NNE,19,4.0,4.0,74,0.00,CLR,,0.00,0.0,WeatherDisplay:10.37,2013-12-08 00:26:00,
2013-12-08 01:31:00,48.3,40.0,30.29,NNE,19,4.6,4.6,73,0.00,CLR,,0.00,0.0,WeatherDisplay:10.37,2013-12-08 00:31:00,
2013-12-08 01:36:00,48.1,39.5,30.29,NNE,19,4.6,4.6,72,0.00,CLR,,0.00,0.0,WeatherDisplay:10.37,2013-12-08 00:36:00,
2013-12-08 01:41:00,47.9,38.9,30.29,NNE,19,2.3,0.0,71,0.00,CLR,,0.00,0.0,WeatherDisplay:10.37,2013-12-08 00:41:00,
2013-12-08 01:46:00,47.7,38.8,30.29,NNE,19,3.5,3.5,71,0.00,CLR,,0.00,0.0,WeatherDisplay:10.37,2013-12-08 00:46:00,
2013-12-08 01:51:00,47.5,38.9,30.29,NNE,19,0.0,0.0,72,0.00,CLR,,0.00,0.0,WeatherDisplay:10.37,2013-12-08 00:51:00,
2013-12-08 01:56:00,47.3,38.7,30.29,NNE,19,0.0,0.0,72,0.00,CLR,,0.00,0.0,WeatherDisplay:10.37,2013-12-08 00:56:00,
2013-12-08 02:02:00,47.1,38.9,30.29,NNE,19,0.0,0.0,73,0.00,CLR,,0.00,0.0,WeatherDisplay:10.37,2013-12-08 01:02:00,
2013-12-08 02:07:00,46.9,39.0,30.29,NNE,19,0.0,0.0,74,0.00,CLR,,0.00,0.0,WeatherDisplay:10.37,2013-12-08 01:07:00,
2013-12-08 02:12:00,46.8,39.3,30.29,NNE,19,3.5,3.5,75,0.00,CLR,,0.00,0.0,WeatherDisplay:10.37,2013-12-08 01:12:00,
2013-12-08 02:17:00,46.6,39.1,30.29,NNE,19,3.5,3.5,75,0.00,CLR,,0.00,0.0,WeatherDisplay:10.37,2013-12-08 01:17:00,
2013-12-08 02:22:00,46.4,38.9,30.29,NNE,19,5.8,5.8,75,0.00,CLR,,0.00,0.0,WeatherDisplay:10.37,2013-12-08 01:22:00,
2013-12-08 02:27:00,46.5,39.0,30.29,NNE,19,4.6,4.6,75,0.00,CLR,,0.00,0.0,WeatherDisplay:10.37,2013-12-08 01:27:00,
2013-12-08 02:32:00,46.7,40.2,30.29,NNE,19,3.5,3.5,78,0.00,CLR,,0.00,0.0,WeatherDisplay:10.37,2013-12-08 01:32:00,
2013-12-08 02:37:00,46.8,40.6,30.29,NNE,19,0.0,0.0,79,0.00,CLR,,0.00,0.0,WeatherDisplay:10.37,2013-12-08 01:37:00,
2013-12-08 02:42:00,46.7,40.5,30.29,NNE,19,0.0,0.0,79,0.00,CLR,,0.00,0.0,WeatherDisplay:10.37,2013-12-08 01:42:00,
2013-12-08 02:47:00,46.5,40.7,30.29,NNE,19,3.5,0.0,80,0.00,CLR,,0.00,0.0,WeatherDisplay:10.37,2013-12-08 01:47:00,
2013-12-08 02:52:00,46.4,41.2,30.29,NNE,19,0.0,1.2,82,0.00,CLR,,0.00,0.0,WeatherDisplay:10.37,2013-12-08 01:52:00,
2013-12-08 02:57:00,46.4,41.8,30.29,NNE,19,4.0,4.0,84,0.00,CLR,,0.00,0.0,WeatherDisplay:10.37,2013-12-08 01:57:00,
2013-12-08 03:02:00,46.2,41.6,30.29,NNE,19,3.5,3.5,84,0.00,CLR,,0.00,0.0,WeatherDisplay:10.37,2013-12-08 02:02:00,
2013-12-08 03:07:00,45.9,41.6,30.30,NNE,19,3.5,3.5,85,0.00,CLR,,0.00,0.0,WeatherDisplay:10.37,2013-12-08 02:07:00,
2013-12-08 03:12:00,45.7,41.4,30.29,NNE,19,4.6,4.6,85,0.00,CLR,,0.00,0.0,WeatherDisplay:10.37,2013-12-08 02:12:00,
2013-12-08 03:17:00,45.5,41.6,30.30,NNE,19,5.8,5.8,86,0.00,CLR,,0.00,0.0,WeatherDisplay:10.37,2013-12-08 02:17:00,
2013-12-08 03:22:00,45.4,41.5,30.30,NNE,19,4.6,4.6,86,0.00,CLR,,0.00,0.0,WeatherDisplay:10.37,2013-12-08 02:22:00,
2013-12-08 03:27:00,45.2,41.6,30.30,NNE,19,5.8,5.8,87,0.00,CLR,,0.00,0.0,WeatherDisplay:10.37,2013-12-08 02:27:00,
2013-12-08 03:36:00,45.2,41.6,30.30,NNE,19,3.5,3.9,87,0.00,CLR,,0.00,0.0,WeatherDisplay:10.37,2013-12-08 02:36:00,
2013-12-08 03:41:00,45.1,41.8,30.30,NNE,19,4.6,4.6,88,0.00,CLR,,0.00,0.0,WeatherDisplay:10.37,2013-12-08 02:41:00,
2013-12-08 03:46:00,45.1,41.8,30.30,NNE,17,4.6,4.6,88,0.00,CLR,,0.00,0.0,WeatherDisplay:10.37,2013-12-08 02:46:00,
2013-12-08 03:51:00,45.0,41.7,30.30,NNE,17,4.6,4.6,88,0.00,CLR,,0.00,0.0,WeatherDisplay:10.37,2013-12-08 02:51:00,
2013-12-08 03:56:00,45.0,42.0,30.30,NNE,15,3.5,4.2,89,0.00,CLR,,0.00,0.0,WeatherDisplay:10.37,2013-12-08 02:56:00,
2013-12-08 04:01:00,44.9,41.6,30.30,NNE,15,4.6,4.6,88,0.00,CLR,,0.00,0.0,WeatherDisplay:10.37,2013-12-08 03:01:00,
2013-12-08 04:06:00,44.8,41.8,30.30,NNE,15,5.8,5.8,89,0.00,CLR,,0.00,0.0,WeatherDisplay:10.37,2013-12-08 03:06:00,
2013-12-08 04:11:00,44.7,41.7,30.30,NNE,15,5.8,5.8,89,0.00,CLR,,0.00,0.0,WeatherDisplay:10.37,2013-12-08 03:11:00,
2013-12-08 04:16:00,44.6,41.3,30.30,NNE,12,6.9,6.9,88,0.00,CLR,,0.00,0.0,WeatherDisplay:10.37,2013-12-08 03:16:00,
2013-12-08 04:21:00,44.5,41.2,30.30,NNE,12,5.0,5.0,88,0.00,CLR,,0.00,0.0,WeatherDisplay:10.37,2013-12-08 03:21:00,
2013-12-08 04:26:00,44.4,41.4,30.30,NNE,12,4.6,4.8,89,0.00,CLR,,0.00,0.0,WeatherDisplay:10.37,2013-12-08 03:26:00,
2013-12-08 04:31:00,44.3,41.3,30.30,NNE,12,3.5,3.7,89,0.00,CLR,,0.00,0.0,WeatherDisplay:10.37,2013-12-08 03:31:00,
2013-12-08 04:36:00,44.2,41.2,30.30,NNE,12,3.5,3.5,89,0.00,CLR,,0.00,0.0,WeatherDisplay:10.37,2013-12-08 03:36:00,
2013-12-08 04:41:00,44.1,41.1,30.29,NNE,12,3.5,3.5,89,0.00,CLR,,0.00,0.0,WeatherDisplay:10.37,2013-12-08 03:41:00,
2013-12-08 04:46:00,44.0,41.0,30.29,NNE,12,3.5,3.5,89,0.00,CLR,,0.00,0.0,WeatherDisplay:10.37,2013-12-08 03:46:00,
2013-12-08 04:51:00,44.0,41.0,30.29,NNE,12,3.5,3.5,89,0.00,CLR,,0.00,0.0,WeatherDisplay:10.37,2013-12-08 03:51:00,
2013-12-08 04:56:00,43.8,40.8,30.29,NNE,12,4.0,4.1,89,0.00,CLR,,0.00,0.0,WeatherDisplay:10.37,2013-12-08 03:56:00,
2013-12-08 05:01:00,43.8,40.8,30.29,NNE,12,5.8,5.8,89,0.00,CLR,,0.00,0.0,WeatherDisplay:10.37,2013-12-08 04:01:00,
2013-12-08 05:06:00,43.7,40.7,30.29,NNE,12,3.5,3.5,89,0.00,CLR,,0.00,0.0,WeatherDisplay:10.37,2013-12-08 04:06:00,
2013-12-08 05:11:00,43.7,40.7,30.29,NNE,12,3.5,3.5,89,0.00,CLR,,0.00,0.0,WeatherDisplay:10.37,2013-12-08 04:11:00,
2013-12-08 05:16:00,43.6,40.6,30.29,NNE,12,5.0,5.0,89,0.00,CLR,,0.00,0.0,WeatherDisplay:10.37,2013-12-08 04:16:00,
2013-12-08 05:21:00,43.5,40.5,30.29,NNE,12,3.5,3.5,89,0.00,CLR,,0.00,0.0,WeatherDisplay:10.37,2013-12-08 04:21:00,
2013-12-08 05:26:00,43.4,40.4,30.29,NNE,12,3.5,3.5,89,0.00,CLR,,0.00,0.0,WeatherDisplay:10.37,2013-12-08 04:26:00,
2013-12-08 05:31:00,43.4,40.7,30.28,NNE,12,5.0,5.0,90,0.00,CLR,,0.00,0.0,WeatherDisplay:10.37,2013-12-08 04:31:00,
2013-12-08 05:36:00,43.3,40.6,30.28,NNE,12,5.0,5.0,90,0.00,CLR,,0.00,0.0,WeatherDisplay:10.37,2013-12-08 04:36:00,
2013-12-08 05:41:00,43.3,40.3,30.28,NNE,12,3.5,3.7,89,0.00,CLR,,0.00,0.0,WeatherDisplay:10.37,2013-12-08 04:41:00,
2013-12-08 05:46:00,43.3,40.6,30.28,NNE,12,3.5,3.5,90,0.00,CLR,,0.00,0.0,WeatherDisplay:10.37,2013-12-08 04:46:00,
2013-12-08 05:51:00,43.2,40.2,30.28,NNE,12,3.5,3.7,89,0.00,CLR,,0.00,0.0,WeatherDisplay:10.37,2013-12-08 04:51:00,
2013-12-08 05:56:00,43.1,40.1,30.28,NNE,12,4.6,4.6,89,0.00,CLR,,0.00,0.0,WeatherDisplay:10.37,2013-12-08 04:56:00,
2013-12-08 06:01:00,43.1,40.4,30.28,NNE,12,4.0,4.0,90,0.00,CLR,,0.00,0.0,WeatherDisplay:10.37,2013-12-08 05:01:00,
2013-12-08 06:02:00,43.1,40.4,30.28,NNE,12,3.5,3.5,90,0.00,CLR,,0.00,0.0,WeatherDisplay:10.37,2013-12-08 05:02:00,
2013-12-08 06:03:00,43.1,40.4,30.28,NNE,12,4.0,4.0,90,0.00,CLR,,0.00,0.0,WeatherDisplay:10.37,2013-12-08 05:03:00,
2013-12-08 06:06:00,43.1,40.4,30.28,NNE,12,3.5,3.5,90,0.00,CLR,,0.00,0.0,WeatherDisplay:10.37,2013-12-08 05:06:00,
2013-12-08 06:10:00,43.1,40.4,30.28,NNE,12,3.5,3.5,90,0.00,CLR,,0.00,0.0,WeatherDisplay:10.37,2013-12-08 05:10:00,
2013-12-08 06:15:00,43.0,40.3,30.28,NNE,12,0.0,0.0,90,0.00,CLR,,0.00,0.0,WeatherDisplay:10.37,2013-12-08 05:15:00,
2013-12-08 06:19:00,43.0,40.3,30.28,NNE,12,4.0,4.0,90,0.00,CLR,,0.00,0.0,WeatherDisplay:10.37,2013-12-08 05:19:00,
2013-12-08 06:24:00,43.0,40.3,30.28,NNE,12,4.6,4.6,90,0.00,CLR,,0.00,0.0,WeatherDisplay:10.37,2013-12-08 05:24:00,
2013-12-08 06:29:00,42.9,40.2,30.28,NNE,12,4.6,4.6,90,0.00,CLR,,0.00,0.0,WeatherDisplay:10.37,2013-12-08 05:29:00,
2013-12-08 06:34:00,42.7,39.7,30.28,NNE,12,3.5,3.5,89,0.00,CLR,,0.00,0.0,WeatherDisplay:10.37,2013-12-08 05:34:00,
2013-12-08 06:39:00,42.7,40.0,30.29,NNE,12,3.5,3.6,90,0.00,CLR,,0.00,0.0,WeatherDisplay:10.37,2013-12-08 05:39:00,
2013-12-08 06:44:00,42.6,39.9,30.29,NNE,12,4.6,4.6,90,0.00,CLR,,0.00,0.0,WeatherDisplay:10.37,2013-12-08 05:44:00,
2013-12-08 06:49:00,42.6,39.9,30.29,NNE,12,3.5,3.5,90,0.00,CLR,,0.00,0.0,WeatherDisplay:10.37,2013-12-08 05:49:00,
2013-12-08 06:54:00,42.6,39.9,30.29,NNE,12,0.0,0.0,90,0.00,CLR,,0.00,0.0,WeatherDisplay:10.37,2013-12-08 05:54:00,
2013-12-08 06:59:00,42.7,40.0,30.30,NNE,12,3.5,3.5,90,0.00,CLR,,0.00,0.0,WeatherDisplay:10.37,2013-12-08 05:59:00,
2013-12-08 07:04:00,42.7,40.0,30.30,NNE,12,3.5,3.5,90,0.00,CLR,,0.00,0.0,WeatherDisplay:10.37,2013-12-08 06:04:00,
2013-12-08 07:09:00,42.6,39.9,30.30,NNE,12,3.5,3.5,90,0.00,CLR,,0.00,0.0,WeatherDisplay:10.37,2013-12-08 06:09:00,
2013-12-08 07:14:00,42.6,39.9,30.30,NNE,12,3.5,3.5,90,0.00,CLR,,0.00,0.0,WeatherDisplay:10.37,2013-12-08 06:14:00,
2013-12-08 07:19:00,42.5,39.8,30.30,NNE,12,4.6,4.6,90,0.00,CLR,,0.00,0.0,WeatherDisplay:10.37,2013-12-08 06:19:00,
2013-12-08 07:24:00,42.5,39.8,30.30,NNE,12,5.0,5.0,90,0.00,CLR,,0.00,0.0,WeatherDisplay:10.37,2013-12-08 06:24:00,
2013-12-08 07:29:00,42.4,39.7,30.30,NNE,12,4.6,4.6,90,0.00,CLR,,0.00,0.0,WeatherDisplay:10.37,2013-12-08 06:29:00,
2013-12-08 07:34:00,42.3,39.6,30.30,NNE,12,3.5,3.5,90,0.00,CLR,,0.00,0.0,WeatherDisplay:10.37,2013-12-08 06:34:00,
2013-12-08 07:39:00,42.3,39.6,30.30,NNE,12,4.6,4.6,90,0.00,CLR,,0.00,0.0,WeatherDisplay:10.37,2013-12-08 06:39:00,
2013-12-08 07:44:00,42.4,39.7,30.30,NNE,12,4.6,4.6,90,0.00,CLR,,0.00,0.0,WeatherDisplay:10.37,2013-12-08 06:44:00,
2013-12-08 07:49:00,42.4,39.7,30.30,NNE,12,3.5,3.5,90,0.00,CLR,,0.00,0.0,WeatherDisplay:10.37,2013-12-08 06:49:00,
2013-12-08 07:54:00,42.4,39.7,30.30,NNE,12,4.0,4.0,90,0.00,CLR,,0.00,0.0,WeatherDisplay:10.37,2013-12-08 06:54:00,
2013-12-08 07:59:00,42.3,39.6,30.31,NNE,12,4.6,4.6,90,0.00,CLR,,0.00,0.0,WeatherDisplay:10.37,2013-12-08 06:59:00,
2013-12-08 08:04:00,42.3,39.6,30.31,NNE,12,3.5,3.5,90,0.00,CLR,,0.00,0.0,WeatherDisplay:10.37,2013-12-08 07:04:00,
2013-12-08 08:09:00,42.3,39.6,30.31,NNE,12,5.0,5.0,90,0.00,CLR,,0.00,0.0,WeatherDisplay:10.37,2013-12-08 07:09:00,
2013-12-08 08:14:00,42.3,39.6,30.31,NNE,12,4.6,4.6,90,0.00,CLR,,0.00,0.0,WeatherDisplay:10.37,2013-12-08 07:14:00,
2013-12-08 08:19:00,42.2,39.5,30.31,NNE,12,5.8,5.8,90,0.00,CLR,,0.00,6.0,WeatherDisplay:10.37,2013-12-08 07:19:00,
2013-12-08 08:24:00,42.0,39.3,30.31,NNE,12,5.0,5.0,90,0.00,CLR,,0.00,10.8,WeatherDisplay:10.37,2013-12-08 07:24:00,
2013-12-08 08:29:00,42.1,39.4,30.31,NNE,12,3.5,3.5,90,0.00,CLR,,0.00,14.4,WeatherDisplay:10.37,2013-12-08 07:29:00,
2013-12-08 08:34:00,42.1,39.4,30.31,NNE,12,3.5,3.5,90,0.00,CLR,,0.00,25.2,WeatherDisplay:10.37,2013-12-08 07:34:00,
2013-12-08 08:39:00,42.0,39.3,30.31,NNE,12,0.0,0.0,90,0.00,CLR,,0.00,38.4,WeatherDisplay:10.37,2013-12-08 07:39:00,
2013-12-08 08:44:00,42.2,39.5,30.31,NNE,12,0.0,0.0,90,0.00,CLR,,0.00,48.0,WeatherDisplay:10.37,2013-12-08 07:44:00,
2013-12-08 08:49:00,42.2,39.5,30.32,NNE,12,4.0,4.0,90,0.00,CLR,,0.00,58.8,WeatherDisplay:10.37,2013-12-08 07:49:00,
2013-12-08 08:54:00,42.3,39.6,30.32,NNE,12,3.5,3.5,90,0.00,CLR,,0.00,74.4,WeatherDisplay:10.37,2013-12-08 07:54:00,
2013-12-08 08:59:00,42.3,39.6,30.32,NNE,12,3.5,3.5,90,0.00,CLR,,0.00,88.8,WeatherDisplay:10.37,2013-12-08 07:59:00,
2013-12-08 09:04:00,42.4,39.7,30.32,NNE,12,4.0,4.0,90,0.00,CLR,,0.00,103.2,WeatherDisplay:10.37,2013-12-08 08:04:00,
2013-12-08 09:09:00,42.5,39.8,30.32,NNE,12,5.8,5.8,90,0.00,CLR,,0.00,116.4,WeatherDisplay:10.37,2013-12-08 08:09:00,
2013-12-08 09:14:00,42.6,39.9,30.33,NNE,12,4.6,4.8,90,0.00,CLR,,0.00,128.4,WeatherDisplay:10.37,2013-12-08 08:14:00,
2013-12-08 09:19:00,42.8,40.1,30.33,NNE,12,3.5,3.5,90,0.00,OVC,,0.00,145.2,WeatherDisplay:10.37,2013-12-08 08:19:00,
2013-12-08 09:24:00,42.9,39.9,30.32,NNE,12,3.5,3.5,89,0.00,OVC,,0.00,160.8,WeatherDisplay:10.37,2013-12-08 08:24:00,
2013-12-08 09:29:00,43.0,40.0,30.32,NNE,12,4.0,4.0,89,0.00,OVC,,0.00,178.8,WeatherDisplay:10.37,2013-12-08 08:29:00,
2013-12-08 09:34:00,43.2,40.2,30.33,NNE,12,3.5,3.5,89,0.00,BKN,,0.00,192.0,WeatherDisplay:10.37,2013-12-08 08:34:00,
2013-12-08 09:39:00,43.4,40.1,30.33,NNE,12,3.5,3.5,88,0.00,BKN,,0.00,213.6,WeatherDisplay:10.37,2013-12-08 08:39:00,
2013-12-08 09:44:00,43.7,40.4,30.33,NNE,12,3.5,3.5,88,0.00,BKN,,0.00,228.0,WeatherDisplay:10.37,2013-12-08 08:44:00,
2013-12-08 09:49:00,44.1,40.8,30.33,NNE,12,0.0,0.0,88,0.00,SCT,,0.00,242.4,WeatherDisplay:10.37,2013-12-08 08:49:00,
2013-12-08 09:54:00,44.4,40.8,30.33,NNE,12,0.0,0.0,87,0.00,SCT,,0.00,256.8,WeatherDisplay:10.37,2013-12-08 08:54:00,
2013-12-08 09:59:00,44.7,41.1,30.33,NNE,12,0.0,0.0,87,0.00,SCT,,0.00,274.8,WeatherDisplay:10.37,2013-12-08 08:59:00,
2013-12-08 10:04:00,45.0,41.4,30.33,NNE,12,3.5,3.5,87,0.00,SCT,,0.00,292.8,WeatherDisplay:10.37,2013-12-08 09:04:00,
2013-12-08 10:09:00,45.4,41.5,30.33,NNE,12,3.5,3.5,86,0.00,SCT,,0.00,303.6,WeatherDisplay:10.37,2013-12-08 09:09:00,
2013-12-08 10:14:00,45.8,41.9,30.33,NNE,12,3.5,3.5,86,0.00,SCT,,0.00,322.8,WeatherDisplay:10.37,2013-12-08 09:14:00,
2013-12-08 10:19:00,46.2,42.2,30.33,NNE,12,0.0,0.0,86,0.00,SCT,,0.00,337.2,WeatherDisplay:10.37,2013-12-08 09:19:00,
2013-12-08 10:24:00,46.5,41.6,30.33,NNE,12,0.0,0.0,83,0.00,FEW,,0.00,348.0,WeatherDisplay:10.37,2013-12-08 09:24:00,
2013-12-08 10:29:00,46.9,41.7,30.34,NNE,12,0.0,0.0,82,0.00,FEW,,0.00,364.8,WeatherDisplay:10.37,2013-12-08 09:29:00,
2013-12-08 10:34:00,47.5,42.0,30.34,NNE,12,0.0,0.0,81,0.00,FEW,,0.00,378.0,WeatherDisplay:10.37,2013-12-08 09:34:00,
2013-12-08 10:39:00,48.2,42.0,30.34,NNE,12,0.0,0.0,79,0.00,FEW,,0.00,392.4,WeatherDisplay:10.37,2013-12-08 09:39:00,
2013-12-08 10:44:00,49.0,42.4,30.34,NNE,12,0.0,0.0,78,0.00,FEW,,0.00,405.6,WeatherDisplay:10.37,2013-12-08 09:44:00,
2013-12-08 10:49:00,49.8,42.9,30.35,NNE,12,0.0,0.0,77,0.00,FEW,,0.00,420.0,WeatherDisplay:10.37,2013-12-08 09:49:00,
2013-12-08 10:54:00,50.6,42.3,30.35,NNE,12,0.0,0.0,73,0.00,FEW,,0.00,432.0,WeatherDisplay:10.37,2013-12-08 09:54:00,
2013-12-08 10:59:00,51.3,42.2,30.35,NNE,12,0.0,0.0,71,0.00,FEW,,0.00,445.2,WeatherDisplay:10.37,2013-12-08 09:59:00,
2013-12-08 11:04:00,51.9,42.4,30.35,NNE,12,0.0,0.0,70,0.00,FEW,,0.00,457.2,WeatherDisplay:10.37,2013-12-08 10:04:00,
2013-12-08 11:09:00,52.4,42.5,30.35,NNE,12,0.0,0.0,69,0.00,FEW,,0.00,468.0,WeatherDisplay:10.37,2013-12-08 10:09:00,
2013-12-08 11:14:00,52.8,42.9,30.35,NNE,12,0.0,0.0,69,0.00,CLR,,0.00,478.8,WeatherDisplay:10.37,2013-12-08 10:14:00,
2013-12-08 11:20:00,53.2,43.3,30.35,NNE,12,0.0,0.0,69,0.00,CLR,,0.00,487.2,WeatherDisplay:10.37,2013-12-08 10:20:00,
2013-12-08 11:25:00,53.5,43.2,30.35,NNE,12,0.0,0.0,68,0.00,CLR,,0.00,498.0,WeatherDisplay:10.37,2013-12-08 10:25:00,
2013-12-08 11:30:00,53.8,43.5,30.35,NNE,12,0.0,0.0,68,0.00,CLR,,0.00,135.6,WeatherDisplay:10.37,2013-12-08 10:30:00,
2013-12-08 11:35:00,54.0,43.3,30.35,NNE,12,0.0,0.0,67,0.00,SCT,,0.00,462.0,WeatherDisplay:10.37,2013-12-08 10:35:00,
2013-12-08 11:40:00,53.9,43.2,30.35,NNE,12,0.0,0.0,67,0.00,SCT,,0.00,523.2,WeatherDisplay:10.37,2013-12-08 10:40:00,
2013-12-08 11:45:00,53.9,43.6,30.35,NNE,12,0.0,0.0,68,0.00,CLR,,0.00,529.2,WeatherDisplay:10.37,2013-12-08 10:45:00,
2013-12-08 11:50:00,54.0,43.3,30.35,NNE,12,3.5,3.5,67,0.00,CLR,,0.00,537.6,WeatherDisplay:10.37,2013-12-08 10:50:00,
2013-12-08 11:55:00,54.2,44.6,30.35,NNE,12,4.0,4.0,70,0.00,CLR,,0.00,550.8,WeatherDisplay:10.37,2013-12-08 10:55:00,
2013-12-08 12:00:00,54.6,45.0,30.34,NNE,12,3.0,3.0,70,0.00,CLR,,0.00,554.4,WeatherDisplay:10.37,2013-12-08 11:00:00,
2013-12-08 12:05:00,54.8,45.6,30.34,NNE,12,3.5,3.5,71,0.00,CLR,,0.00,559.2,WeatherDisplay:10.37,2013-12-08 11:05:00,
2013-12-08 12:10:00,54.8,45.9,30.34,NNE,12,4.6,4.6,72,0.00,CLR,,0.00,562.8,WeatherDisplay:10.37,2013-12-08 11:10:00,
2013-12-08 12:15:00,55.0,46.1,30.34,NNE,12,3.5,3.5,72,0.00,CLR,,0.00,570.0,WeatherDisplay:10.37,2013-12-08 11:15:00,
2013-12-08 12:20:00,55.1,45.9,30.34,NNE,12,3.5,3.5,71,0.00,CLR,,0.00,578.4,WeatherDisplay:10.37,2013-12-08 11:20:00,
2013-12-08 12:25:00,55.5,45.9,30.33,NNE,12,3.5,3.5,70,0.00,CLR,,0.00,584.4,WeatherDisplay:10.37,2013-12-08 11:25:00,
2013-12-08 12:30:00,56.0,46.4,30.33,NNE,12,3.5,3.5,70,0.00,CLR,,0.00,584.4,WeatherDisplay:10.37,2013-12-08 11:30:00,
2013-12-08 12:35:00,56.6,46.2,30.33,NNE,12,0.0,0.0,68,0.00,CLR,,0.00,588.0,WeatherDisplay:10.37,2013-12-08 11:35:00,
2013-12-08 12:40:00,57.0,45.7,30.33,NNE,12,0.0,0.0,66,0.00,CLR,,0.00,579.6,WeatherDisplay:10.37,2013-12-08 11:40:00,
2013-12-08 12:45:00,57.3,45.6,30.32,NNE,12,4.6,4.6,65,0.00,CLR,,0.00,601.2,WeatherDisplay:10.37,2013-12-08 11:45:00,
2013-12-08 12:50:00,57.5,45.4,30.32,NNE,12,4.6,4.6,64,0.00,CLR,,0.00,604.8,WeatherDisplay:10.37,2013-12-08 11:50:00,
2013-12-08 12:55:00,57.6,45.1,30.32,NNE,12,0.0,0.0,63,0.00,CLR,,0.00,523.2,WeatherDisplay:10.37,2013-12-08 11:55:00,
2013-12-08 13:00:00,57.8,45.7,30.32,NNE,12,3.5,0.0,64,0.00,FEW,,0.00,303.6,WeatherDisplay:10.37,2013-12-08 12:00:00,
2013-12-08 13:06:00,58.1,45.1,30.31,NNE,32,5.0,5.0,62,0.00,FEW,,0.00,595.2,WeatherDisplay:10.37,2013-12-08 12:06:00,
2013-12-08 13:11:00,58.5,45.5,30.31,NE,53,6.9,6.9,62,0.00,FEW,,0.00,598.8,WeatherDisplay:10.37,2013-12-08 12:11:00,
2013-12-08 13:16:00,58.7,45.3,30.31,NE,53,3.0,3.0,61,0.00,CLR,,0.00,590.4,WeatherDisplay:10.37,2013-12-08 12:16:00,
2013-12-08 13:21:00,58.9,45.0,30.31,NE,53,0.0,0.0,60,0.00,CLR,,0.00,590.4,WeatherDisplay:10.37,2013-12-08 12:21:00,
2013-12-08 13:26:00,59.0,45.6,30.31,NE,52,4.6,4.6,61,0.00,CLR,,0.00,598.8,WeatherDisplay:10.37,2013-12-08 12:26:00,
2013-12-08 13:31:00,59.5,45.6,30.31,NE,49,3.5,3.5,60,0.00,CLR,,0.00,595.2,WeatherDisplay:10.37,2013-12-08 12:31:00,
2013-12-08 13:36:00,59.9,45.5,30.30,NE,49,0.0,0.0,59,0.00,CLR,,0.00,588.0,WeatherDisplay:10.37,2013-12-08 12:36:00,
2013-12-08 13:41:00,60.2,45.4,30.30,NE,49,0.0,0.0,58,0.00,CLR,,0.00,595.2,WeatherDisplay:10.37,2013-12-08 12:41:00,
2013-12-08 13:46:00,60.5,45.6,30.30,NNE,22,8.1,8.1,58,0.00,CLR,,0.00,586.8,WeatherDisplay:10.37,2013-12-08 12:46:00,
2013-12-08 13:51:00,61.0,45.7,30.30,NNE,22,3.5,3.5,57,0.00,CLR,,0.00,573.6,WeatherDisplay:10.37,2013-12-08 12:51:00,
2013-12-08 13:56:00,61.3,45.5,30.30,NNE,21,3.5,3.5,56,0.00,CLR,,0.00,567.6,WeatherDisplay:10.37,2013-12-08 12:56:00,
2013-12-08 14:01:00,61.7,45.4,30.30,NNE,19,1.2,0.0,55,0.00,CLR,,0.00,578.4,WeatherDisplay:10.37,2013-12-08 13:01:00,
2013-12-08 14:06:00,62.0,45.6,30.30,NNE,19,3.5,3.5,55,0.00,CLR,,0.00,567.6,WeatherDisplay:10.37,2013-12-08 13:06:00,
2013-12-08 14:11:00,62.3,45.4,30.30,NNE,22,4.6,4.6,54,0.00,CLR,,0.00,562.8,WeatherDisplay:10.37,2013-12-08 13:11:00,
2013-12-08 14:16:00,62.2,45.3,30.30,NE,34,8.1,8.1,54,0.00,CLR,,0.00,556.8,WeatherDisplay:10.37,2013-12-08 13:16:00,
2013-12-08 14:21:00,62.1,45.7,30.30,ENE,61,4.6,5.0,55,0.00,CLR,,0.00,546.0,WeatherDisplay:10.37,2013-12-08 13:21:00,
2013-12-08 14:26:00,60.9,45.6,30.29,SSE,159,12.7,12.7,57,0.00,CLR,,0.00,542.4,WeatherDisplay:10.37,2013-12-08 13:26:00,
2013-12-08 14:31:00,60.3,45.5,30.30,SE,126,8.1,8.1,58,0.00,CLR,,0.00,537.6,WeatherDisplay:10.37,2013-12-08 13:31:00,
2013-12-08 14:36:00,59.6,45.7,30.29,SSE,148,11.5,11.5,60,0.00,CLR,,0.00,534.0,WeatherDisplay:10.37,2013-12-08 13:36:00,
2013-12-08 14:41:00,59.3,45.8,30.29,SE,134,11.5,11.5,61,0.00,CLR,,0.00,523.2,WeatherDisplay:10.37,2013-12-08 13:41:00,
2013-12-08 14:46:00,59.0,45.6,30.29,SSE,155,12.7,12.7,61,0.00,CLR,,0.00,512.4,WeatherDisplay:10.37,2013-12-08 13:46:00,
2013-12-08 14:51:00,58.7,45.7,30.29,SE,136,11.5,11.5,62,0.00,CLR,,0.00,504.0,WeatherDisplay:10.37,2013-12-08 13:51:00,
2013-12-08 14:56:00,58.5,45.5,30.29,SSE,147,8.1,8.1,62,0.00,CLR,,0.00,493.2,WeatherDisplay:10.37,2013-12-08 13:56:00,
2013-12-08 15:01:00,58.3,45.3,30.29,SE,142,11.5,11.5,62,0.00,CLR,,0.00,484.8,WeatherDisplay:10.37,2013-12-08 14:01:00,
2013-12-08 15:06:00,58.3,45.3,30.29,SE,138,8.1,8.1,62,0.00,CLR,,0.00,475.2,WeatherDisplay:10.37,2013-12-08 14:06:00,
2013-12-08 15:11:00,58.2,45.2,30.29,SE,126,9.2,9.4,62,0.00,CLR,,0.00,464.4,WeatherDisplay:10.37,2013-12-08 14:11:00,
2013-12-08 15:16:00,58.1,45.1,30.29,SE,134,10.4,10.4,62,0.00,CLR,,0.00,447.6,WeatherDisplay:10.37,2013-12-08 14:16:00,
2013-12-08 15:21:00,58.2,45.2,30.29,SE,130,8.1,8.1,62,0.00,CLR,,0.00,434.4,WeatherDisplay:10.37,2013-12-08 14:21:00,
2013-12-08 15:26:00,58.1,45.1,30.29,SE,134,9.2,9.2,62,0.00,CLR,,0.00,422.4,WeatherDisplay:10.37,2013-12-08 14:26:00,
2013-12-08 15:31:00,57.9,45.0,30.29,ESE,120,9.2,9.2,62,0.00,CLR,,0.00,406.8,WeatherDisplay:10.37,2013-12-08 14:31:00,
2013-12-08 15:36:00,57.8,45.3,30.29,SE,138,7.0,7.0,63,0.00,CLR,,0.00,394.8,WeatherDisplay:10.37,2013-12-08 14:36:00,
2013-12-08 15:41:00,57.8,45.3,30.29,ESE,120,8.0,8.0,63,0.00,CLR,,0.00,381.6,WeatherDisplay:10.37,2013-12-08 14:41:00,
2013-12-08 15:46:00,57.7,45.2,30.29,SE,134,11.5,11.5,63,0.00,CLR,,0.00,369.6,WeatherDisplay:10.37,2013-12-08 14:46:00,
2013-12-08 15:51:00,57.6,45.5,30.29,SE,140,4.6,4.6,64,0.00,CLR,,0.00,356.4,WeatherDisplay:10.37,2013-12-08 14:51:00,
2013-12-08 15:56:00,57.5,45.4,30.29,SE,132,8.1,8.1,64,0.00,CLR,,0.00,344.4,WeatherDisplay:10.37,2013-12-08 14:56:00,
2013-12-08 16:01:00,57.3,45.2,30.29,SE,133,9.2,9.2,64,0.00,CLR,,0.00,325.2,WeatherDisplay:10.37,2013-12-08 15:01:00,
2013-12-08 16:06:00,57.0,45.3,30.29,SE,144,13.0,13.0,65,0.00,CLR,,0.00,312.0,WeatherDisplay:10.37,2013-12-08 15:06:00,
2013-12-08 16:11:00,56.8,45.2,30.29,SE,142,6.9,6.9,65,0.00,CLR,,0.00,292.8,WeatherDisplay:10.37,2013-12-08 15:11:00,
2013-12-08 16:16:00,56.6,45.4,30.29,SE,137,6.9,6.9,66,0.00,CLR,,0.00,283.2,WeatherDisplay:10.37,2013-12-08 15:16:00,
2013-12-08 16:21:00,56.3,45.1,30.29,SE,130,10.0,10.0,66,0.00,CLR,,0.00,265.2,WeatherDisplay:10.37,2013-12-08 15:21:00,
2013-12-08 16:26:00,56.0,45.2,30.29,ESE,121,11.5,11.5,67,0.00,CLR,,0.00,250.8,WeatherDisplay:10.37,2013-12-08 15:26:00,
2013-12-08 16:31:00,55.8,45.0,30.29,SE,130,10.4,10.4,67,0.00,CLR,,0.00,236.4,WeatherDisplay:10.37,2013-12-08 15:31:00,
2013-12-08 16:36:00,55.6,44.8,30.29,SE,137,10.4,10.4,67,0.00,CLR,,0.00,219.6,WeatherDisplay:10.37,2013-12-08 15:36:00,
2013-12-08 16:41:00,55.4,44.6,30.30,SE,135,8.1,8.1,67,0.00,CLR,,0.00,205.2,WeatherDisplay:10.37,2013-12-08 15:41:00,
2013-12-08 16:46:00,55.2,44.8,30.30,SE,132,10.4,10.4,68,0.00,CLR,,0.00,187.2,WeatherDisplay:10.37,2013-12-08 15:46:00,
2013-12-08 16:51:00,55.0,44.6,30.30,SE,127,9.2,9.2,68,0.00,CLR,,0.00,175.2,WeatherDisplay:10.37,2013-12-08 15:51:00,
2013-12-08 16:56:00,54.9,44.5,30.30,SSE,157,8.1,8.1,68,0.00,CLR,,0.00,158.4,WeatherDisplay:10.37,2013-12-08 15:56:00,
2013-12-08 17:01:00,54.7,44.7,30.30,SE,134,6.9,6.9,69,0.00,CLR,,0.00,144.0,WeatherDisplay:10.37,2013-12-08 16:01:00,
2013-12-08 17:06:00,54.6,44.6,30.30,SSE,155,5.8,5.8,69,0.00,CLR,,0.00,126.0,WeatherDisplay:10.37,2013-12-08 16:06:00,
2013-12-08 17:11:00,54.5,44.5,30.30,SE,134,3.5,3.5,69,0.00,CLR,,0.00,109.2,WeatherDisplay:10.37,2013-12-08 16:11:00,
2013-12-08 17:16:00,54.4,44.8,30.30,SE,146,3.5,3.5,70,0.00,CLR,,0.00,92.4,WeatherDisplay:10.37,2013-12-08 16:16:00,
2013-12-08 17:21:00,54.3,44.7,30.30,SE,146,0.0,0.0,70,0.00,CLR,,0.00,78.0,WeatherDisplay:10.37,2013-12-08 16:21:00,
2013-12-08 17:26:00,54.2,44.6,30.30,SSW,196,1.0,0.0,70,0.00,CLR,,0.00,67.2,WeatherDisplay:10.37,2013-12-08 16:26:00,
2013-12-08 17:31:00,54.0,44.8,30.30,SSW,196,0.0,0.0,71,0.00,CLR,,0.00,27.6,WeatherDisplay:10.37,2013-12-08 16:31:00,
2013-12-08 17:36:00,53.8,45.0,30.30,South,171,0.0,0.0,72,0.00,CLR,,0.00,25.2,WeatherDisplay:10.37,2013-12-08 16:36:00,
2013-12-08 17:41:00,53.7,44.9,30.30,South,172,0.0,0.0,72,0.00,CLR,,0.00,21.6,WeatherDisplay:10.37,2013-12-08 16:41:00,
2013-12-08 17:46:00,53.5,45.1,30.30,South,172,0.0,0.0,73,0.00,CLR,,0.00,16.8,WeatherDisplay:10.37,2013-12-08 16:46:00,
2013-12-08 17:51:00,53.3,44.9,30.31,South,171,0.0,0.0,73,0.00,CLR,,0.00,13.2,WeatherDisplay:10.37,2013-12-08 16:51:00,
2013-12-08 17:56:00,53.1,45.0,30.31,South,171,0.0,0.0,74,0.00,CLR,,0.00,8.4,WeatherDisplay:10.37,2013-12-08 16:56:00,
2013-12-08 18:01:00,52.9,44.8,30.31,South,171,0.0,0.0,74,0.00,CLR,,0.00,6.0,WeatherDisplay:10.37,2013-12-08 17:01:00,
2013-12-08 18:06:00,52.7,45.0,30.31,South,171,0.0,0.0,75,0.00,CLR,,0.00,0.0,WeatherDisplay:10.37,2013-12-08 17:06:00,
2013-12-08 18:11:00,52.5,44.8,30.31,South,171,0.0,0.0,75,0.00,CLR,,0.00,0.0,WeatherDisplay:10.37,2013-12-08 17:11:00,
2013-12-08 18:16:00,52.3,45.0,30.31,South,171,2.3,2.3,76,0.00,CLR,,0.00,0.0,WeatherDisplay:10.37,2013-12-08 17:16:00,
2013-12-08 18:21:00,52.1,44.8,30.31,South,171,0.0,0.0,76,0.00,CLR,,0.00,0.0,WeatherDisplay:10.37,2013-12-08 17:21:00,
2013-12-08 18:26:00,51.9,44.6,30.32,South,171,2.0,2.0,76,0.00,CLR,,0.00,0.0,WeatherDisplay:10.37,2013-12-08 17:26:00,
2013-12-08 18:31:00,51.8,44.5,30.32,South,171,1.2,1.2,76,0.00,CLR,,0.00,0.0,WeatherDisplay:10.37,2013-12-08 17:31:00,
2013-12-08 18:36:00,51.7,44.7,30.32,South,172,4.0,4.0,77,0.00,CLR,,0.00,0.0,WeatherDisplay:10.37,2013-12-08 17:36:00,
2013-12-08 18:41:00,51.5,44.5,30.32,South,172,3.5,3.5,77,0.00,CLR,,0.00,0.0,WeatherDisplay:10.37,2013-12-08 17:41:00,
2013-12-08 18:46:00,51.5,44.5,30.32,South,172,0.0,0.0,77,0.00,CLR,,0.00,0.0,WeatherDisplay:10.37,2013-12-08 17:46:00,
2013-12-08 18:51:00,51.4,44.4,30.32,South,172,0.0,0.0,77,0.00,CLR,,0.00,0.0,WeatherDisplay:10.37,2013-12-08 17:51:00,
2013-12-08 18:56:00,51.3,44.3,30.32,South,172,0.0,0.0,77,0.00,CLR,,0.00,0.0,WeatherDisplay:10.37,2013-12-08 17:56:00,
2013-12-08 19:01:00,51.2,44.6,30.32,South,172,0.0,0.0,78,0.00,CLR,,0.00,0.0,WeatherDisplay:10.37,2013-12-08 18:01:00,
2013-12-08 19:06:00,51.1,44.5,30.33,South,172,0.0,0.0,78,0.00,CLR,,0.00,0.0,WeatherDisplay:10.37,2013-12-08 18:06:00,
2013-12-08 19:11:00,51.0,44.4,30.33,South,172,0.0,0.0,78,0.00,CLR,,0.00,0.0,WeatherDisplay:10.37,2013-12-08 18:11:00,
2013-12-08 19:16:00,50.8,44.2,30.33,South,172,0.0,0.0,78,0.00,CLR,,0.00,0.0,WeatherDisplay:10.37,2013-12-08 18:16:00,
2013-12-08 19:21:00,50.6,44.0,30.33,South,172,0.0,0.0,78,0.00,CLR,,0.00,0.0,WeatherDisplay:10.37,2013-12-08 18:21:00,
2013-12-08 19:26:00,50.4,43.8,30.33,South,172,0.0,0.0,78,0.00,CLR,,0.00,0.0,WeatherDisplay:10.37,2013-12-08 18:26:00,
2013-12-08 19:31:00,50.1,43.5,30.33,South,172,0.0,0.0,78,0.00,CLR,,0.00,0.0,WeatherDisplay:10.37,2013-12-08 18:31:00,
2013-12-08 19:36:00,49.9,43.3,30.33,South,172,0.0,0.0,78,0.00,CLR,,0.00,0.0,WeatherDisplay:10.37,2013-12-08 18:36:00,
2013-12-08 19:41:00,49.6,43.4,30.33,South,172,0.0,0.0,79,0.00,CLR,,0.00,0.0,WeatherDisplay:10.37,2013-12-08 18:41:00,
2013-12-08 19:46:00,49.4,43.5,30.33,South,172,0.0,0.0,80,0.00,CLR,,0.00,0.0,WeatherDisplay:10.37,2013-12-08 18:46:00,
2013-12-08 19:51:00,49.2,43.3,30.34,SSW,212,4.6,4.6,80,0.00,CLR,,0.00,0.0,WeatherDisplay:10.37,2013-12-08 18:51:00,
2013-12-08 19:56:00,49.0,43.1,30.34,SSW,212,0.0,0.0,80,0.00,CLR,,0.00,0.0,WeatherDisplay:10.37,2013-12-08 18:56:00,
2013-12-08 20:01:00,48.9,43.0,30.34,SSW,212,0.0,0.0,80,0.00,CLR,,0.00,0.0,WeatherDisplay:10.37,2013-12-08 19:01:00,
2013-12-08 20:06:00,48.7,42.8,30.34,SSW,212,1.2,0.0,80,0.00,CLR,,0.00,0.0,WeatherDisplay:10.37,2013-12-08 19:06:00,
2013-12-08 20:11:00,48.6,43.0,30.34,SSW,212,0.0,0.0,81,0.00,CLR,,0.00,0.0,WeatherDisplay:10.37,2013-12-08 19:11:00,
2013-12-08 20:16:00,48.4,42.8,30.34,SSW,213,3.5,3.6,81,0.00,CLR,,0.00,0.0,WeatherDisplay:10.37,2013-12-08 19:16:00,
2013-12-08 20:21:00,48.3,42.7,30.34,SW,218,4.6,4.6,81,0.00,CLR,,0.00,0.0,WeatherDisplay:10.37,2013-12-08 19:21:00,
2013-12-08 20:26:00,48.2,43.0,30.34,SW,218,1.2,1.2,82,0.00,CLR,,0.00,0.0,WeatherDisplay:10.37,2013-12-08 19:26:00,
2013-12-08 20:31:00,48.2,43.3,30.34,SW,218,4.6,4.6,83,0.00,CLR,,0.00,0.0,WeatherDisplay:10.37,2013-12-08 19:31:00,
2013-12-08 20:36:00,48.3,43.4,30.34,SW,218,0.0,0.0,83,0.00,CLR,,0.00,0.0,WeatherDisplay:10.37,2013-12-08 19:36:00,
2013-12-08 20:41:00,48.3,43.4,30.34,SW,218,0.0,0.0,83,0.00,CLR,,0.00,0.0,WeatherDisplay:10.37,2013-12-08 19:41:00,
2013-12-08 20:46:00,48.3,43.4,30.34,SW,218,0.0,0.0,83,0.00,CLR,,0.00,0.0,WeatherDisplay:10.37,2013-12-08 19:46:00,
2013-12-08 20:51:00,48.2,43.3,30.34,SW,218,0.0,0.0,83,0.00,CLR,,0.00,0.0,WeatherDisplay:10.37,2013-12-08 19:51:00,
2013-12-08 20:56:00,48.2,43.6,30.34,SW,218,0.0,0.0,84,0.00,CLR,,0.00,0.0,WeatherDisplay:10.37,2013-12-08 19:56:00,
2013-12-08 21:01:00,48.3,43.7,30.34,SW,218,0.0,0.0,84,0.00,CLR,,0.00,0.0,WeatherDisplay:10.37,2013-12-08 20:01:00,
2013-12-08 21:06:00,48.3,44.0,30.34,SW,218,0.0,0.0,85,0.00,CLR,,0.00,0.0,WeatherDisplay:10.37,2013-12-08 20:06:00,
2013-12-08 21:11:00,48.4,44.1,30.35,SW,218,0.0,0.0,85,0.00,CLR,,0.00,0.0,WeatherDisplay:10.37,2013-12-08 20:11:00,
2013-12-08 21:16:00,48.4,44.1,30.35,SW,218,0.0,0.0,85,0.00,CLR,,0.00,0.0,WeatherDisplay:10.37,2013-12-08 20:16:00,
2013-12-08 21:21:00,48.4,44.1,30.35,SW,218,0.0,0.0,85,0.00,CLR,,0.00,0.0,WeatherDisplay:10.37,2013-12-08 20:21:00,
2013-12-08 21:26:00,48.4,44.1,30.35,SW,218,0.0,0.0,85,0.00,CLR,,0.00,0.0,WeatherDisplay:10.37,2013-12-08 20:26:00,
2013-12-08 21:31:00,48.5,44.2,30.35,SW,218,3.5,3.5,85,0.00,CLR,,0.00,0.0,WeatherDisplay:10.37,2013-12-08 20:31:00,
2013-12-08 21:36:00,48.6,44.0,30.35,SW,218,2.3,2.3,84,0.00,CLR,,0.00,0.0,WeatherDisplay:10.37,2013-12-08 20:36:00,
2013-12-08 21:41:00,48.6,44.0,30.35,SW,218,2.3,2.3,84,0.00,CLR,,0.00,0.0,WeatherDisplay:10.37,2013-12-08 20:41:00,
2013-12-08 21:46:00,48.7,44.1,30.35,SW,218,3.5,3.5,84,0.00,CLR,,0.00,0.0,WeatherDisplay:10.37,2013-12-08 20:46:00,
2013-12-08 21:51:00,48.7,44.1,30.35,SW,218,0.0,0.0,84,0.00,CLR,,0.00,0.0,WeatherDisplay:10.37,2013-12-08 20:51:00,
2013-12-08 21:56:00,48.7,44.1,30.35,SW,218,0.0,0.0,84,0.00,CLR,,0.00,0.0,WeatherDisplay:10.37,2013-12-08 20:56:00,
2013-12-08 22:01:00,48.6,43.7,30.36,SW,218,0.0,0.0,83,0.00,CLR,,0.00,0.0,WeatherDisplay:10.37,2013-12-08 21:01:00,
2013-12-08 22:06:00,48.7,44.1,30.36,SW,218,2.3,2.3,84,0.00,CLR,,0.00,0.0,WeatherDisplay:10.37,2013-12-08 21:06:00,
2013-12-08 22:11:00,48.8,44.2,30.36,SW,218,0.0,0.0,84,0.00,CLR,,0.00,0.0,WeatherDisplay:10.37,2013-12-08 21:11:00,
2013-12-08 22:16:00,48.8,44.5,30.36,SW,218,0.0,0.0,85,0.00,CLR,,0.00,0.0,WeatherDisplay:10.37,2013-12-08 21:16:00,
2013-12-08 22:21:00,48.9,44.6,30.36,SW,218,0.0,0.0,85,0.00,CLR,,0.00,0.0,WeatherDisplay:10.37,2013-12-08 21:21:00,
2013-12-08 22:26:00,48.8,44.5,30.36,SW,218,0.0,0.0,85,0.00,CLR,,0.00,0.0,WeatherDisplay:10.37,2013-12-08 21:26:00,
2013-12-08 22:31:00,48.8,44.5,30.36,SW,218,0.0,0.0,85,0.00,CLR,,0.00,0.0,WeatherDisplay:10.37,2013-12-08 21:31:00,
2013-12-08 22:36:00,48.8,44.5,30.36,SW,218,0.0,0.0,85,0.00,CLR,,0.00,0.0,WeatherDisplay:10.37,2013-12-08 21:36:00,
2013-12-08 22:41:00,48.8,44.5,30.36,SW,218,0.0,0.0,85,0.00,CLR,,0.00,0.0,WeatherDisplay:10.37,2013-12-08 21:41:00,
2013-12-08 22:46:00,48.8,44.5,30.36,SW,218,0.0,0.0,85,0.00,CLR,,0.00,0.0,WeatherDisplay:10.37,2013-12-08 21:46:00,
2013-12-08 22:51:00,48.7,44.4,30.36,SW,218,0.0,0.0,85,0.00,CLR,,0.00,0.0,WeatherDisplay:10.37,2013-12-08 21:51:00,
2013-12-08 22:56:00,48.6,44.3,30.37,SW,218,0.0,0.0,85,0.00,CLR,,0.00,0.0,WeatherDisplay:10.37,2013-12-08 21:56:00,
2013-12-08 23:01:00,48.5,43.9,30.36,SW,218,0.0,0.0,84,0.00,CLR,,0.00,0.0,WeatherDisplay:10.37,2013-12-08 22:01:00,
2013-12-08 23:06:00,48.5,44.2,30.37,SW,218,0.0,0.0,85,0.00,CLR,,0.00,0.0,WeatherDisplay:10.37,2013-12-08 22:06:00,
2013-12-08 23:11:00,48.5,43.9,30.37,SW,218,0.0,0.0,84,0.00,CLR,,0.00,0.0,WeatherDisplay:10.37,2013-12-08 22:11:00,
2013-12-08 23:16:00,48.5,43.9,30.37,SW,218,0.0,0.0,84,0.00,CLR,,0.00,0.0,WeatherDisplay:10.37,2013-12-08 22:16:00,
2013-12-08 23:21:00,48.4,43.8,30.37,SW,218,0.0,0.0,84,0.00,CLR,,0.00,0.0,WeatherDisplay:10.37,2013-12-08 22:21:00,
2013-12-08 23:26:00,48.5,44.2,30.37,SW,218,0.0,0.0,85,0.00,CLR,,0.00,0.0,WeatherDisplay:10.37,2013-12-08 22:26:00,
2013-12-08 23:31:00,48.5,44.2,30.37,SW,218,0.0,0.0,85,0.00,CLR,,0.00,0.0,WeatherDisplay:10.37,2013-12-08 22:31:00,
2013-12-08 23:36:00,48.6,44.3,30.37,SW,218,0.0,0.0,85,0.00,CLR,,0.00,0.0,WeatherDisplay:10.37,2013-12-08 22:36:00,
2013-12-08 23:41:00,48.6,44.3,30.37,SW,218,0.0,0.0,85,0.00,CLR,,0.00,0.0,WeatherDisplay:10.37,2013-12-08 22:41:00,
2013-12-08 23:46:00,48.7,44.4,30.37,SW,218,0.0,0.0,85,0.00,CLR,,0.00,0.0,WeatherDisplay:10.37,2013-12-08 22:46:00,
2013-12-08 23:51:00,48.7,44.4,30.37,SW,218,0.0,0.0,85,0.00,CLR,,0.00,0.0,WeatherDisplay:10.37,2013-12-08 22:51:00,
2013-12-08 23:56:00,48.8,44.5,30.38,SW,218,0.0,0.0,85,0.00,CLR,,0.00,0.0,WeatherDisplay:10.37,2013-12-08 22:56:00,